Big Bear Station Historical Data
Daily Summary for October 13, 2017 Units:  English    Metric   Both
« Previous Day
Next Day »
Daily Weekly Monthly Yearly Custom
  High: Low: Average:
Temperature: 66.9 °F 31.8 °F 46.2 °F
Dew Point: 32.3 °F 14.3 °F 26 °F
Humidity: 86 % 13 % 52 %
Wind Speed: 8.9 mph 0.0 mph 1 mph
Wind Gust: -999.0 mph - -
Wind:- - WNW
Pressure: 30.21 in 30.17 in -
Precipitation: 0.00 in    
Historical Graphs
 
 
Tabular Data for October 13, 2017
Time Temperature Dew Point Pressure Wind Wind Speed Wind Gust Humidity Rainfall Rate (Hourly)
00:01 36.7 °F 21.2 °F 30.18 in Calm   -999.0 mph 53 % 0 in
00:17 36.7 °F 23.3 °F 30.18 in Calm   -999.0 mph 58 % 0 in
00:32 36.1 °F 24.3 °F 30.18 in Calm   -999.0 mph 62 % 0 in
00:47 36.0 °F 25.4 °F 30.18 in Calm   -999.0 mph 65 % 0 in
01:02 35.6 °F 24.2 °F 30.18 in Calm   -999.0 mph 63 % 0 in
01:17 35.6 °F 26.4 °F 30.19 in Calm   -999.0 mph 69 % 0 in
01:33 35.1 °F 25.6 °F 30.19 in Calm   -999.0 mph 68 % 0 in
01:48 35.2 °F 25.3 °F 30.18 in Calm   -999.0 mph 67 % 0 in
02:03 34.9 °F 25.4 °F 30.19 in Calm   -999.0 mph 68 % 0 in
02:18 34.7 °F 25.6 °F 30.19 in Calm   -999.0 mph 69 % 0 in
02:33 34.7 °F 25.6 °F 30.18 in Calm   -999.0 mph 69 % 0 in
02:49 34.2 °F 24.4 °F 30.18 in Calm   -999.0 mph 67 % 0 in
03:04 34.2 °F 24.7 °F 30.18 in Calm   -999.0 mph 68 % 0 in
03:19 34.0 °F 25.6 °F 30.18 in Calm   -999.0 mph 71 % 0 in
03:34 33.8 °F 26.7 °F 30.18 in Calm   -999.0 mph 75 % 0 in
03:49 33.6 °F 27.8 °F 30.18 in Calm   -999.0 mph 79 % 0 in
04:05 33.6 °F 28.1 °F 30.18 in Calm   -999.0 mph 80 % 0 in
04:20 33.4 °F 28.5 °F 30.18 in Calm   -999.0 mph 82 % 0 in
04:35 33.4 °F 28.2 °F 30.18 in Calm   -999.0 mph 81 % 0 in
04:50 33.1 °F 27.6 °F 30.18 in Calm   -999.0 mph 80 % 0 in
05:06 32.9 °F 27.4 °F 30.18 in Calm   -999.0 mph 80 % 0 in
05:21 32.9 °F 27.7 °F 30.18 in Calm   -999.0 mph 81 % 0 in
05:36 32.7 °F 27.5 °F 30.19 in Calm   -999.0 mph 81 % 0 in
05:51 32.4 °F 28.1 °F 30.18 in Calm   -999.0 mph 84 % 0 in
06:06 32.4 °F 28.4 °F 30.18 in Calm   -999.0 mph 85 % 0 in
06:22 32.7 °F 28.7 °F 30.19 in Calm   -999.0 mph 85 % 0 in
06:37 32.2 °F 28.5 °F 30.19 in Calm   -999.0 mph 86 % 0 in
06:52 31.8 °F 27.8 °F 30.19 in Calm   -999.0 mph 85 % 0 in
07:07 32.2 °F 27.9 °F 30.19 in Calm   -999.0 mph 84 % 0 in
07:22 32.4 °F 27.8 °F 30.19 in Calm   -999.0 mph 83 % 0 in
07:38 32.0 °F 27.4 °F 30.19 in Calm   -999.0 mph 83 % 0 in
07:53 32.0 °F 27.7 °F 30.19 in Calm   -999.0 mph 84 % 0 in
08:08 33.6 °F 29.3 °F 30.20 in Calm   -999.0 mph 84 % 0 in
08:23 34.2 °F 29.9 °F 30.20 in Calm   -999.0 mph 84 % 0 in
08:38 35.1 °F 30.8 °F 30.20 in Calm   -999.0 mph 84 % 0 in
08:54 36.3 °F 31.6 °F 30.20 in Calm   -999.0 mph 83 % 0 in
09:09 38.1 °F 29.9 °F 30.20 in Calm   -999.0 mph 72 % 0 in
09:24 40.5 °F 31.8 °F 30.20 in Calm   -999.0 mph 71 % 0 in
09:39 43.2 °F 32.2 °F 30.20 in West 1.1 mph -999.0 mph 65 % 0 in
09:54 47.3 °F 27.6 °F 30.21 in Calm   -999.0 mph 46 % 0 in
10:10 51.8 °F 20.5 °F 30.20 in NW 3.2 mph -999.0 mph 29 % 0 in
10:25 56.3 °F 19.9 °F 30.21 in WNW 8.9 mph -999.0 mph 24 % 0 in
10:40 58.5 °F 21.8 °F 30.20 in SE 1.7 mph -999.0 mph 24 % 0 in
10:55 59.9 °F 23.0 °F 30.20 in West 2.2 mph -999.0 mph 24 % 0 in
11:10 61.3 °F 23.2 °F 30.21 in West 4.2 mph -999.0 mph 23 % 0 in
11:26 62.4 °F 21.9 °F 30.20 in West 1.1 mph -999.0 mph 21 % 0 in
11:41 63.3 °F 21.5 °F 30.21 in West 1.7 mph -999.0 mph 20 % 0 in
11:56 64.2 °F 22.3 °F 30.20 in NNW 3.2 mph -999.0 mph 20 % 0 in
12:11 64.6 °F 21.4 °F 30.20 in WSW 2.7 mph -999.0 mph 19 % 0 in
12:27 65.3 °F 22.0 °F 30.20 in NW 4.7 mph -999.0 mph 19 % 0 in
12:42 65.7 °F 23.5 °F 30.20 in NW 3.7 mph -999.0 mph 20 % 0 in
12:57 66.0 °F 21.3 °F 30.19 in NW 3.7 mph -999.0 mph 18 % 0 in
13:12 66.6 °F 20.4 °F 30.19 in NW 4.7 mph -999.0 mph 17 % 0 in
13:27 66.4 °F 18.8 °F 30.19 in WNW 2.2 mph -999.0 mph 16 % 0 in
13:43 66.9 °F 22.0 °F 30.18 in NW 4.2 mph -999.0 mph 18 % 0 in
13:58 66.7 °F 14.3 °F 30.18 in NW 4.7 mph -999.0 mph 13 % 0 in
14:13 65.1 °F 20.5 °F 30.18 in NW 2.7 mph -999.0 mph 18 % 0 in
14:29 64.6 °F 18.8 °F 30.18 in NNW 4.2 mph -999.0 mph 17 % 0 in
14:44 64.8 °F 14.4 °F 30.17 in NNW 2.2 mph -999.0 mph 14 % 0 in
15:02 64.9 °F 19.0 °F 30.18 in NW 4.2 mph -999.0 mph 17 % 0 in
15:17 64.9 °F 19.0 °F 30.18 in SSW 1.1 mph -999.0 mph 17 % 0 in
15:32 64.8 °F 21.5 °F 30.18 in Calm   -999.0 mph 19 % 0 in
15:48 63.9 °F 24.3 °F 30.18 in NW 3.7 mph -999.0 mph 22 % 0 in
16:03 62.4 °F 26.1 °F 30.18 in NW 2.2 mph -999.0 mph 25 % 0 in
16:19 61.7 °F 29.9 °F 30.18 in NW 3.2 mph -999.0 mph 30 % 0 in
16:34 61.0 °F 29.3 °F 30.17 in WNW 3.7 mph -999.0 mph 30 % 0 in
16:49 60.6 °F 29.0 °F 30.17 in WNW 2.2 mph -999.0 mph 30 % 0 in
17:04 59.7 °F 31.3 °F 30.17 in West 1.7 mph -999.0 mph 34 % 0 in
17:20 59.5 °F 31.1 °F 30.17 in NW 4.2 mph -999.0 mph 34 % 0 in
17:35 57.7 °F 32.3 °F 30.17 in Calm   -999.0 mph 38 % 0 in
17:50 56.7 °F 31.4 °F 30.17 in SW 1.1 mph -999.0 mph 38 % 0 in
18:05 55.4 °F 31.5 °F 30.17 in Calm   -999.0 mph 40 % 0 in
18:20 54.0 °F 30.8 °F 30.18 in Calm   -999.0 mph 41 % 0 in
18:36 52.3 °F 30.5 °F 30.18 in Calm   -999.0 mph 43 % 0 in
18:51 51.3 °F 30.7 °F 30.18 in Calm   -999.0 mph 45 % 0 in
19:06 50.0 °F 30.0 °F 30.18 in Calm   -999.0 mph 46 % 0 in
19:21 49.1 °F 29.7 °F 30.19 in Calm   -999.0 mph 47 % 0 in
19:36 47.7 °F 27.9 °F 30.19 in Calm   -999.0 mph 46 % 0 in
19:52 46.8 °F 27.6 °F 30.19 in Calm   -999.0 mph 47 % 0 in
20:07 46.0 °F 27.9 °F 30.19 in Calm   -999.0 mph 49 % 0 in
20:22 45.0 °F 27.0 °F 30.19 in Calm   -999.0 mph 49 % 0 in
20:37 44.1 °F 26.6 °F 30.19 in Calm   -999.0 mph 50 % 0 in
20:52 43.2 °F 26.3 °F 30.19 in Calm   -999.0 mph 51 % 0 in
21:08 42.4 °F 26.5 °F 30.20 in Calm   -999.0 mph 53 % 0 in
21:23 42.1 °F 26.2 °F 30.20 in Calm   -999.0 mph 53 % 0 in
21:38 41.2 °F 25.4 °F 30.20 in Calm   -999.0 mph 53 % 0 in
21:53 40.5 °F 25.2 °F 30.20 in Calm   -999.0 mph 54 % 0 in
22:08 40.1 °F 25.2 °F 30.20 in Calm   -999.0 mph 55 % 0 in
22:24 39.4 °F 26.3 °F 30.20 in Calm   -999.0 mph 59 % 0 in
22:39 39.2 °F 27.7 °F 30.20 in Calm   -999.0 mph 63 % 0 in
22:54 38.5 °F 26.6 °F 30.21 in Calm   -999.0 mph 62 % 0 in
23:09 38.3 °F 26.4 °F 30.21 in Calm   -999.0 mph 62 % 0 in
23:25 37.8 °F 25.9 °F 30.21 in Calm   -999.0 mph 62 % 0 in
23:40 37.2 °F 25.4 °F 30.20 in Calm   -999.0 mph 62 % 0 in
23:55 36.9 °F 26.2 °F 30.21 in Calm   -999.0 mph 65 % 0 in
Big Bear CA Weather
Compliments of Weather Underground - 1.5 mb